sensor_id;sensor_type;location;lat;lon;timestamp;P1;durP1;ratioP1;P2;durP2;ratioP2
12776;SDS011;6452;41.572;23.732;2024-01-15T00:02:25;52.38;;;31.88;;
12776;SDS011;6452;41.572;23.732;2024-01-15T00:04:52;60.05;;;33.53;;
12776;SDS011;6452;41.572;23.732;2024-01-15T00:07:18;52.42;;;31.48;;
12776;SDS011;6452;41.572;23.732;2024-01-15T00:09:44;49.40;;;29.48;;
12776;SDS011;6452;41.572;23.732;2024-01-15T00:12:10;51.20;;;30.40;;
12776;SDS011;6452;41.572;23.732;2024-01-15T00:14:37;43.72;;;26.73;;
12776;SDS011;6452;41.572;23.732;2024-01-15T00:17:03;44.03;;;27.15;;
12776;SDS011;6452;41.572;23.732;2024-01-15T00:19:29;47.22;;;27.75;;
12776;SDS011;6452;41.572;23.732;2024-01-15T00:21:57;42.22;;;27.60;;
12776;SDS011;6452;41.572;23.732;2024-01-15T00:24:24;49.53;;;29.08;;
12776;SDS011;6452;41.572;23.732;2024-01-15T00:26:50;63.53;;;35.22;;
12776;SDS011;6452;41.572;23.732;2024-01-15T00:29:16;93.68;;;48.30;;
12776;SDS011;6452;41.572;23.732;2024-01-15T00:31:42;65.78;;;37.95;;
12776;SDS011;6452;41.572;23.732;2024-01-15T00:34:08;61.15;;;35.10;;
12776;SDS011;6452;41.572;23.732;2024-01-15T00:36:34;54.42;;;32.47;;
12776;SDS011;6452;41.572;23.732;2024-01-15T00:39:00;59.83;;;32.65;;
12776;SDS011;6452;41.572;23.732;2024-01-15T00:41:26;78.10;;;42.28;;
12776;SDS011;6452;41.572;23.732;2024-01-15T00:43:53;51.22;;;30.83;;
12776;SDS011;6452;41.572;23.732;2024-01-15T00:46:19;43.78;;;26.23;;
12776;SDS011;6452;41.572;23.732;2024-01-15T00:48:45;48.40;;;28.13;;
12776;SDS011;6452;41.572;23.732;2024-01-15T00:51:12;56.17;;;32.03;;
12776;SDS011;6452;41.572;23.732;2024-01-15T00:53:38;52.20;;;29.42;;
12776;SDS011;6452;41.572;23.732;2024-01-15T00:56:05;50.92;;;30.38;;
12776;SDS011;6452;41.572;23.732;2024-01-15T00:58:31;49.88;;;30.98;;
12776;SDS011;6452;41.572;23.732;2024-01-15T01:00:57;88.43;;;44.95;;
12776;SDS011;6452;41.572;23.732;2024-01-15T01:03:23;58.33;;;31.23;;
12776;SDS011;6452;41.572;23.732;2024-01-15T01:05:49;43.60;;;26.50;;
12776;SDS011;6452;41.572;23.732;2024-01-15T01:08:15;42.22;;;25.17;;
12776;SDS011;6452;41.572;23.732;2024-01-15T01:10:41;41.05;;;25.25;;
12776;SDS011;6452;41.572;23.732;2024-01-15T01:13:10;68.30;;;35.10;;
12776;SDS011;6452;41.572;23.732;2024-01-15T01:15:36;58.70;;;30.48;;
12776;SDS011;6452;41.572;23.732;2024-01-15T01:18:02;45.17;;;28.50;;
12776;SDS011;6452;41.572;23.732;2024-01-15T01:20:29;49.90;;;30.30;;
12776;SDS011;6452;41.572;23.732;2024-01-15T01:22:55;46.95;;;27.50;;
12776;SDS011;6452;41.572;23.732;2024-01-15T01:25:21;45.85;;;28.60;;
12776;SDS011;6452;41.572;23.732;2024-01-15T01:27:48;48.80;;;28.13;;
12776;SDS011;6452;41.572;23.732;2024-01-15T01:30:14;50.97;;;30.38;;
12776;SDS011;6452;41.572;23.732;2024-01-15T01:32:40;54.22;;;33.75;;
12776;SDS011;6452;41.572;23.732;2024-01-15T01:35:06;63.92;;;35.13;;
12776;SDS011;6452;41.572;23.732;2024-01-15T01:37:32;58.55;;;33.42;;
12776;SDS011;6452;41.572;23.732;2024-01-15T01:39:59;53.28;;;31.05;;
12776;SDS011;6452;41.572;23.732;2024-01-15T01:42:25;51.70;;;30.88;;
12776;SDS011;6452;41.572;23.732;2024-01-15T01:44:51;47.45;;;29.27;;
12776;SDS011;6452;41.572;23.732;2024-01-15T01:47:17;44.72;;;28.95;;
12776;SDS011;6452;41.572;23.732;2024-01-15T01:49:44;46.05;;;27.58;;
12776;SDS011;6452;41.572;23.732;2024-01-15T01:52:10;46.05;;;27.80;;
12776;SDS011;6452;41.572;23.732;2024-01-15T01:54:36;46.03;;;26.88;;
12776;SDS011;6452;41.572;23.732;2024-01-15T01:57:02;44.05;;;27.38;;
12776;SDS011;6452;41.572;23.732;2024-01-15T01:59:29;44.33;;;27.42;;
12776;SDS011;6452;41.572;23.732;2024-01-15T02:01:56;46.63;;;27.67;;
12776;SDS011;6452;41.572;23.732;2024-01-15T02:04:23;44.70;;;27.60;;
12776;SDS011;6452;41.572;23.732;2024-01-15T02:06:49;41.58;;;26.45;;
12776;SDS011;6452;41.572;23.732;2024-01-15T02:09:16;55.90;;;30.73;;
12776;SDS011;6452;41.572;23.732;2024-01-15T02:11:42;50.28;;;28.13;;
12776;SDS011;6452;41.572;23.732;2024-01-15T02:14:09;44.10;;;26.45;;
12776;SDS011;6452;41.572;23.732;2024-01-15T02:16:34;46.65;;;28.60;;
12776;SDS011;6452;41.572;23.732;2024-01-15T02:19:00;87.88;;;41.83;;
12776;SDS011;6452;41.572;23.732;2024-01-15T02:21:26;53.95;;;31.02;;
12776;SDS011;6452;41.572;23.732;2024-01-15T02:23:54;50.30;;;30.23;;
12776;SDS011;6452;41.572;23.732;2024-01-15T02:26:20;49.10;;;28.92;;
12776;SDS011;6452;41.572;23.732;2024-01-15T02:28:46;48.92;;;28.90;;
12776;SDS011;6452;41.572;23.732;2024-01-15T02:31:12;44.20;;;27.13;;
12776;SDS011;6452;41.572;23.732;2024-01-15T02:33:38;46.97;;;27.77;;
12776;SDS011;6452;41.572;23.732;2024-01-15T02:36:04;44.17;;;27.70;;
12776;SDS011;6452;41.572;23.732;2024-01-15T02:38:30;44.85;;;27.30;;
12776;SDS011;6452;41.572;23.732;2024-01-15T02:40:57;84.03;;;37.03;;
12776;SDS011;6452;41.572;23.732;2024-01-15T02:43:23;71.25;;;37.60;;
12776;SDS011;6452;41.572;23.732;2024-01-15T02:45:49;47.63;;;27.75;;
12776;SDS011;6452;41.572;23.732;2024-01-15T02:48:15;50.08;;;28.58;;
12776;SDS011;6452;41.572;23.732;2024-01-15T02:50:41;90.05;;;40.80;;
12776;SDS011;6452;41.572;23.732;2024-01-15T02:53:07;73.30;;;35.65;;
12776;SDS011;6452;41.572;23.732;2024-01-15T02:55:33;63.28;;;34.00;;
12776;SDS011;6452;41.572;23.732;2024-01-15T02:57:59;56.95;;;31.58;;
12776;SDS011;6452;41.572;23.732;2024-01-15T03:00:25;62.53;;;33.45;;
12776;SDS011;6452;41.572;23.732;2024-01-15T03:02:51;50.58;;;29.50;;
12776;SDS011;6452;41.572;23.732;2024-01-15T03:05:17;46.78;;;27.50;;
12776;SDS011;6452;41.572;23.732;2024-01-15T03:07:43;49.03;;;27.98;;
12776;SDS011;6452;41.572;23.732;2024-01-15T03:10:09;45.53;;;26.30;;
12776;SDS011;6452;41.572;23.732;2024-01-15T03:12:35;41.58;;;24.83;;
12776;SDS011;6452;41.572;23.732;2024-01-15T03:15:02;45.22;;;25.63;;
12776;SDS011;6452;41.572;23.732;2024-01-15T03:17:28;68.35;;;34.10;;
12776;SDS011;6452;41.572;23.732;2024-01-15T03:19:54;49.85;;;28.83;;
12776;SDS011;6452;41.572;23.732;2024-01-15T03:22:20;51.78;;;28.85;;
12776;SDS011;6452;41.572;23.732;2024-01-15T03:24:46;53.03;;;29.48;;
12776;SDS011;6452;41.572;23.732;2024-01-15T03:27:12;45.38;;;27.70;;
12776;SDS011;6452;41.572;23.732;2024-01-15T03:29:39;137.60;;;46.55;;
12776;SDS011;6452;41.572;23.732;2024-01-15T03:32:05;183.90;;;59.65;;
12776;SDS011;6452;41.572;23.732;2024-01-15T03:34:31;333.40;;;94.13;;
12776;SDS011;6452;41.572;23.732;2024-01-15T03:36:57;430.90;;;117.82;;
12776;SDS011;6452;41.572;23.732;2024-01-15T03:39:24;189.07;;;63.05;;
12776;SDS011;6452;41.572;23.732;2024-01-15T03:41:50;77.70;;;36.78;;
12776;SDS011;6452;41.572;23.732;2024-01-15T03:44:16;47.25;;;28.48;;
12776;SDS011;6452;41.572;23.732;2024-01-15T03:46:41;42.03;;;27.55;;
12776;SDS011;6452;41.572;23.732;2024-01-15T03:49:08;39.60;;;26.10;;
12776;SDS011;6452;41.572;23.732;2024-01-15T03:51:33;39.95;;;25.20;;
12776;SDS011;6452;41.572;23.732;2024-01-15T03:53:59;42.53;;;24.75;;
12776;SDS011;6452;41.572;23.732;2024-01-15T03:56:25;46.47;;;27.40;;
12776;SDS011;6452;41.572;23.732;2024-01-15T03:58:51;43.60;;;25.98;;
12776;SDS011;6452;41.572;23.732;2024-01-15T04:01:17;48.25;;;28.90;;
12776;SDS011;6452;41.572;23.732;2024-01-15T04:03:43;54.20;;;29.55;;
12776;SDS011;6452;41.572;23.732;2024-01-15T04:06:09;70.28;;;34.67;;
12776;SDS011;6452;41.572;23.732;2024-01-15T04:08:35;73.53;;;36.30;;
12776;SDS011;6452;41.572;23.732;2024-01-15T04:11:01;51.72;;;30.45;;
12776;SDS011;6452;41.572;23.732;2024-01-15T04:13:27;45.05;;;26.85;;
12776;SDS011;6452;41.572;23.732;2024-01-15T04:15:53;39.35;;;25.15;;
12776;SDS011;6452;41.572;23.732;2024-01-15T04:18:19;44.40;;;27.90;;
12776;SDS011;6452;41.572;23.732;2024-01-15T04:20:45;46.85;;;27.10;;
12776;SDS011;6452;41.572;23.732;2024-01-15T04:23:11;57.13;;;36.05;;
12776;SDS011;6452;41.572;23.732;2024-01-15T04:25:38;53.92;;;36.28;;
12776;SDS011;6452;41.572;23.732;2024-01-15T04:28:06;45.05;;;27.88;;
12776;SDS011;6452;41.572;23.732;2024-01-15T04:30:32;49.47;;;32.67;;
12776;SDS011;6452;41.572;23.732;2024-01-15T04:32:59;55.35;;;32.30;;
12776;SDS011;6452;41.572;23.732;2024-01-15T04:35:25;62.45;;;36.05;;
12776;SDS011;6452;41.572;23.732;2024-01-15T04:37:51;56.28;;;34.53;;
12776;SDS011;6452;41.572;23.732;2024-01-15T04:40:17;61.45;;;33.88;;
12776;SDS011;6452;41.572;23.732;2024-01-15T04:42:43;57.70;;;34.15;;
12776;SDS011;6452;41.572;23.732;2024-01-15T04:45:11;59.33;;;34.53;;
12776;SDS011;6452;41.572;23.732;2024-01-15T04:47:37;56.90;;;30.77;;
12776;SDS011;6452;41.572;23.732;2024-01-15T04:50:04;46.55;;;30.20;;
12776;SDS011;6452;41.572;23.732;2024-01-15T04:52:30;51.25;;;29.42;;
12776;SDS011;6452;41.572;23.732;2024-01-15T04:54:56;61.58;;;34.05;;
12776;SDS011;6452;41.572;23.732;2024-01-15T04:57:21;54.53;;;31.98;;
12776;SDS011;6452;41.572;23.732;2024-01-15T04:59:48;56.45;;;33.15;;
12776;SDS011;6452;41.572;23.732;2024-01-15T05:02:14;48.88;;;32.00;;
12776;SDS011;6452;41.572;23.732;2024-01-15T05:04:40;50.58;;;33.08;;
12776;SDS011;6452;41.572;23.732;2024-01-15T05:07:06;45.20;;;30.40;;
12776;SDS011;6452;41.572;23.732;2024-01-15T05:09:32;46.33;;;28.42;;
12776;SDS011;6452;41.572;23.732;2024-01-15T05:11:57;45.05;;;27.25;;
12776;SDS011;6452;41.572;23.732;2024-01-15T05:14:23;48.13;;;29.63;;
12776;SDS011;6452;41.572;23.732;2024-01-15T05:16:50;47.63;;;29.25;;
12776;SDS011;6452;41.572;23.732;2024-01-15T05:19:16;47.88;;;29.92;;
12776;SDS011;6452;41.572;23.732;2024-01-15T05:21:42;71.20;;;42.28;;
12776;SDS011;6452;41.572;23.732;2024-01-15T05:24:08;69.88;;;39.05;;
12776;SDS011;6452;41.572;23.732;2024-01-15T05:26:34;47.58;;;28.33;;
12776;SDS011;6452;41.572;23.732;2024-01-15T05:29:00;36.58;;;23.05;;
12776;SDS011;6452;41.572;23.732;2024-01-15T05:31:26;36.13;;;22.52;;
12776;SDS011;6452;41.572;23.732;2024-01-15T05:33:52;36.60;;;23.17;;
12776;SDS011;6452;41.572;23.732;2024-01-15T05:36:19;38.03;;;25.02;;
12776;SDS011;6452;41.572;23.732;2024-01-15T05:38:45;37.10;;;24.33;;
12776;SDS011;6452;41.572;23.732;2024-01-15T05:41:11;44.78;;;25.75;;
12776;SDS011;6452;41.572;23.732;2024-01-15T05:43:37;45.13;;;28.00;;
12776;SDS011;6452;41.572;23.732;2024-01-15T05:46:03;51.75;;;31.33;;
12776;SDS011;6452;41.572;23.732;2024-01-15T05:48:29;58.90;;;35.42;;
12776;SDS011;6452;41.572;23.732;2024-01-15T05:50:55;43.20;;;26.90;;
12776;SDS011;6452;41.572;23.732;2024-01-15T05:53:22;43.88;;;26.15;;
12776;SDS011;6452;41.572;23.732;2024-01-15T05:55:48;37.45;;;25.73;;
12776;SDS011;6452;41.572;23.732;2024-01-15T05:58:14;43.83;;;25.63;;
12776;SDS011;6452;41.572;23.732;2024-01-15T06:00:40;38.90;;;24.48;;
12776;SDS011;6452;41.572;23.732;2024-01-15T06:03:06;43.95;;;25.25;;
12776;SDS011;6452;41.572;23.732;2024-01-15T06:05:32;39.85;;;25.95;;
12776;SDS011;6452;41.572;23.732;2024-01-15T06:07:58;39.53;;;25.02;;
12776;SDS011;6452;41.572;23.732;2024-01-15T06:10:24;45.13;;;28.23;;
12776;SDS011;6452;41.572;23.732;2024-01-15T06:12:54;48.35;;;27.83;;
12776;SDS011;6452;41.572;23.732;2024-01-15T06:15:20;61.90;;;35.15;;
12776;SDS011;6452;41.572;23.732;2024-01-15T06:17:47;58.72;;;33.00;;
12776;SDS011;6452;41.572;23.732;2024-01-15T06:20:13;59.42;;;37.10;;
12776;SDS011;6452;41.572;23.732;2024-01-15T06:22:39;57.58;;;34.28;;
12776;SDS011;6452;41.572;23.732;2024-01-15T06:25:08;64.28;;;40.20;;
12776;SDS011;6452;41.572;23.732;2024-01-15T06:27:51;71.05;;;42.65;;
12776;SDS011;6452;41.572;23.732;2024-01-15T06:30:17;67.50;;;39.47;;
12776;SDS011;6452;41.572;23.732;2024-01-15T06:32:43;62.47;;;41.10;;
12776;SDS011;6452;41.572;23.732;2024-01-15T06:35:10;63.78;;;40.72;;
12776;SDS011;6452;41.572;23.732;2024-01-15T06:37:37;66.25;;;40.97;;
12776;SDS011;6452;41.572;23.732;2024-01-15T06:40:03;72.28;;;41.65;;
12776;SDS011;6452;41.572;23.732;2024-01-15T06:42:29;70.90;;;40.25;;
12776;SDS011;6452;41.572;23.732;2024-01-15T06:44:56;64.30;;;39.97;;
12776;SDS011;6452;41.572;23.732;2024-01-15T06:47:22;66.03;;;41.28;;
12776;SDS011;6452;41.572;23.732;2024-01-15T06:49:48;69.25;;;42.00;;
12776;SDS011;6452;41.572;23.732;2024-01-15T06:52:15;70.60;;;44.67;;
12776;SDS011;6452;41.572;23.732;2024-01-15T06:54:42;69.80;;;42.50;;
12776;SDS011;6452;41.572;23.732;2024-01-15T06:57:08;80.55;;;43.75;;
12776;SDS011;6452;41.572;23.732;2024-01-15T06:59:34;77.72;;;45.22;;
12776;SDS011;6452;41.572;23.732;2024-01-15T07:02:03;75.25;;;43.22;;
12776;SDS011;6452;41.572;23.732;2024-01-15T07:04:29;85.72;;;47.90;;
12776;SDS011;6452;41.572;23.732;2024-01-15T07:06:55;91.68;;;51.22;;
12776;SDS011;6452;41.572;23.732;2024-01-15T07:09:21;81.78;;;48.53;;
12776;SDS011;6452;41.572;23.732;2024-01-15T07:11:48;98.18;;;55.70;;
12776;SDS011;6452;41.572;23.732;2024-01-15T07:14:14;88.45;;;53.72;;
12776;SDS011;6452;41.572;23.732;2024-01-15T07:16:39;82.53;;;51.47;;
12776;SDS011;6452;41.572;23.732;2024-01-15T07:19:06;76.40;;;47.40;;
12776;SDS011;6452;41.572;23.732;2024-01-15T07:21:34;75.53;;;46.22;;
12776;SDS011;6452;41.572;23.732;2024-01-15T07:24:00;74.93;;;45.67;;
12776;SDS011;6452;41.572;23.732;2024-01-15T07:26:26;62.65;;;38.97;;
12776;SDS011;6452;41.572;23.732;2024-01-15T07:28:51;57.33;;;37.88;;
12776;SDS011;6452;41.572;23.732;2024-01-15T07:31:17;61.42;;;38.17;;
12776;SDS011;6452;41.572;23.732;2024-01-15T07:33:43;67.55;;;43.05;;
12776;SDS011;6452;41.572;23.732;2024-01-15T07:36:10;64.78;;;41.90;;
12776;SDS011;6452;41.572;23.732;2024-01-15T07:38:36;68.30;;;42.50;;
12776;SDS011;6452;41.572;23.732;2024-01-15T07:41:03;68.53;;;44.13;;
12776;SDS011;6452;41.572;23.732;2024-01-15T07:43:29;70.30;;;40.25;;
12776;SDS011;6452;41.572;23.732;2024-01-15T07:45:55;52.38;;;34.63;;
12776;SDS011;6452;41.572;23.732;2024-01-15T07:48:22;52.72;;;34.22;;
12776;SDS011;6452;41.572;23.732;2024-01-15T07:50:49;49.47;;;32.72;;
12776;SDS011;6452;41.572;23.732;2024-01-15T07:53:15;51.53;;;30.80;;
12776;SDS011;6452;41.572;23.732;2024-01-15T07:55:41;56.90;;;38.13;;
12776;SDS011;6452;41.572;23.732;2024-01-15T07:58:07;47.20;;;31.10;;
12776;SDS011;6452;41.572;23.732;2024-01-15T08:00:33;43.00;;;29.25;;
12776;SDS011;6452;41.572;23.732;2024-01-15T08:02:59;51.70;;;34.38;;
12776;SDS011;6452;41.572;23.732;2024-01-15T08:05:26;54.08;;;35.90;;
12776;SDS011;6452;41.572;23.732;2024-01-15T08:07:52;53.55;;;36.15;;
12776;SDS011;6452;41.572;23.732;2024-01-15T08:10:18;53.95;;;34.72;;
12776;SDS011;6452;41.572;23.732;2024-01-15T08:12:44;47.70;;;33.03;;
12776;SDS011;6452;41.572;23.732;2024-01-15T08:15:10;49.03;;;32.28;;
12776;SDS011;6452;41.572;23.732;2024-01-15T08:17:36;44.40;;;31.30;;
12776;SDS011;6452;41.572;23.732;2024-01-15T08:20:02;48.65;;;32.03;;
12776;SDS011;6452;41.572;23.732;2024-01-15T08:22:30;40.72;;;27.65;;
12776;SDS011;6452;41.572;23.732;2024-01-15T08:24:56;45.10;;;27.52;;
12776;SDS011;6452;41.572;23.732;2024-01-15T08:27:22;39.28;;;25.27;;
12776;SDS011;6452;41.572;23.732;2024-01-15T08:29:48;33.05;;;23.30;;
12776;SDS011;6452;41.572;23.732;2024-01-15T08:32:15;32.53;;;21.83;;
12776;SDS011;6452;41.572;23.732;2024-01-15T08:34:41;32.22;;;22.85;;
12776;SDS011;6452;41.572;23.732;2024-01-15T08:37:10;29.00;;;19.17;;
12776;SDS011;6452;41.572;23.732;2024-01-15T08:39:37;34.45;;;22.88;;
12776;SDS011;6452;41.572;23.732;2024-01-15T08:42:04;30.95;;;21.27;;
12776;SDS011;6452;41.572;23.732;2024-01-15T08:44:30;30.25;;;20.67;;
12776;SDS011;6452;41.572;23.732;2024-01-15T08:46:57;27.52;;;20.45;;
12776;SDS011;6452;41.572;23.732;2024-01-15T08:49:23;32.53;;;21.20;;
12776;SDS011;6452;41.572;23.732;2024-01-15T08:51:49;32.85;;;21.45;;
12776;SDS011;6452;41.572;23.732;2024-01-15T08:54:15;33.08;;;21.35;;
12776;SDS011;6452;41.572;23.732;2024-01-15T08:56:41;34.35;;;22.38;;
12776;SDS011;6452;41.572;23.732;2024-01-15T08:59:07;32.28;;;22.90;;
12776;SDS011;6452;41.572;23.732;2024-01-15T09:01:33;38.53;;;24.40;;
12776;SDS011;6452;41.572;23.732;2024-01-15T09:04:00;38.60;;;23.67;;
12776;SDS011;6452;41.572;23.732;2024-01-15T09:06:26;39.92;;;26.35;;
12776;SDS011;6452;41.572;23.732;2024-01-15T09:08:52;38.70;;;26.17;;
12776;SDS011;6452;41.572;23.732;2024-01-15T09:11:18;40.47;;;25.80;;
12776;SDS011;6452;41.572;23.732;2024-01-15T09:13:44;37.65;;;26.35;;
12776;SDS011;6452;41.572;23.732;2024-01-15T09:16:10;36.60;;;27.40;;
12776;SDS011;6452;41.572;23.732;2024-01-15T09:18:36;43.65;;;28.33;;
12776;SDS011;6452;41.572;23.732;2024-01-15T09:21:03;43.10;;;30.42;;
12776;SDS011;6452;41.572;23.732;2024-01-15T09:23:30;42.10;;;27.80;;
12776;SDS011;6452;41.572;23.732;2024-01-15T09:25:56;39.33;;;27.08;;
12776;SDS011;6452;41.572;23.732;2024-01-15T09:28:22;39.83;;;27.77;;
12776;SDS011;6452;41.572;23.732;2024-01-15T09:30:48;34.47;;;26.20;;
12776;SDS011;6452;41.572;23.732;2024-01-15T09:33:14;36.85;;;25.23;;
12776;SDS011;6452;41.572;23.732;2024-01-15T09:35:41;41.33;;;28.73;;
12776;SDS011;6452;41.572;23.732;2024-01-15T09:38:07;39.40;;;27.42;;
12776;SDS011;6452;41.572;23.732;2024-01-15T09:40:33;40.13;;;28.30;;
12776;SDS011;6452;41.572;23.732;2024-01-15T09:42:59;44.38;;;27.95;;
12776;SDS011;6452;41.572;23.732;2024-01-15T09:45:25;43.08;;;28.98;;
12776;SDS011;6452;41.572;23.732;2024-01-15T09:47:51;46.30;;;30.27;;
12776;SDS011;6452;41.572;23.732;2024-01-15T09:50:17;41.90;;;28.02;;
12776;SDS011;6452;41.572;23.732;2024-01-15T09:52:49;38.83;;;26.05;;
12776;SDS011;6452;41.572;23.732;2024-01-15T09:55:15;35.60;;;25.38;;
12776;SDS011;6452;41.572;23.732;2024-01-15T09:57:41;37.42;;;25.85;;
12776;SDS011;6452;41.572;23.732;2024-01-15T10:00:08;37.90;;;26.45;;
12776;SDS011;6452;41.572;23.732;2024-01-15T10:02:36;34.80;;;26.80;;
12776;SDS011;6452;41.572;23.732;2024-01-15T10:05:02;38.30;;;27.42;;
12776;SDS011;6452;41.572;23.732;2024-01-15T10:07:28;38.33;;;26.55;;
12776;SDS011;6452;41.572;23.732;2024-01-15T10:09:55;42.13;;;27.70;;
12776;SDS011;6452;41.572;23.732;2024-01-15T10:12:21;45.35;;;29.27;;
12776;SDS011;6452;41.572;23.732;2024-01-15T10:14:50;43.67;;;27.90;;
12776;SDS011;6452;41.572;23.732;2024-01-15T10:17:16;49.58;;;29.98;;
12776;SDS011;6452;41.572;23.732;2024-01-15T10:19:43;44.15;;;28.20;;
12776;SDS011;6452;41.572;23.732;2024-01-15T10:22:08;39.83;;;27.95;;
12776;SDS011;6452;41.572;23.732;2024-01-15T10:24:38;44.72;;;28.15;;
12776;SDS011;6452;41.572;23.732;2024-01-15T10:27:05;44.67;;;27.38;;
12776;SDS011;6452;41.572;23.732;2024-01-15T10:29:32;46.30;;;29.73;;
12776;SDS011;6452;41.572;23.732;2024-01-15T10:31:58;44.63;;;28.48;;
12776;SDS011;6452;41.572;23.732;2024-01-15T10:34:24;48.38;;;29.17;;
12776;SDS011;6452;41.572;23.732;2024-01-15T10:36:50;73.90;;;48.50;;
12776;SDS011;6452;41.572;23.732;2024-01-15T10:39:23;50.65;;;33.65;;
12776;SDS011;6452;41.572;23.732;2024-01-15T10:41:49;119.07;;;68.93;;
12776;SDS011;6452;41.572;23.732;2024-01-15T10:44:15;36.55;;;24.05;;
12776;SDS011;6452;41.572;23.732;2024-01-15T10:46:40;41.25;;;27.73;;
12776;SDS011;6452;41.572;23.732;2024-01-15T10:49:06;62.45;;;38.60;;
12776;SDS011;6452;41.572;23.732;2024-01-15T10:51:32;39.05;;;25.77;;
12776;SDS011;6452;41.572;23.732;2024-01-15T10:53:59;40.38;;;25.77;;
12776;SDS011;6452;41.572;23.732;2024-01-15T10:56:25;39.58;;;25.75;;
12776;SDS011;6452;41.572;23.732;2024-01-15T10:58:51;35.92;;;24.88;;
12776;SDS011;6452;41.572;23.732;2024-01-15T11:01:18;61.05;;;37.22;;
12776;SDS011;6452;41.572;23.732;2024-01-15T11:03:45;46.35;;;27.95;;
12776;SDS011;6452;41.572;23.732;2024-01-15T11:06:18;46.20;;;28.17;;
12776;SDS011;6452;41.572;23.732;2024-01-15T11:08:49;40.67;;;27.55;;
12776;SDS011;6452;41.572;23.732;2024-01-15T11:11:16;39.03;;;25.60;;
12776;SDS011;6452;41.572;23.732;2024-01-15T11:13:43;35.33;;;23.75;;
12776;SDS011;6452;41.572;23.732;2024-01-15T11:16:10;41.75;;;24.77;;
12776;SDS011;6452;41.572;23.732;2024-01-15T11:18:39;31.65;;;22.33;;
12776;SDS011;6452;41.572;23.732;2024-01-15T11:28:52;28.95;;;18.98;;
12776;SDS011;6452;41.572;23.732;2024-01-15T11:31:18;29.80;;;18.55;;
12776;SDS011;6452;41.572;23.732;2024-01-15T11:33:48;30.85;;;19.23;;
12776;SDS011;6452;41.572;23.732;2024-01-15T11:36:14;28.02;;;18.85;;
12776;SDS011;6452;41.572;23.732;2024-01-15T11:38:40;29.10;;;17.95;;
12776;SDS011;6452;41.572;23.732;2024-01-15T11:41:13;21.30;;;15.02;;
12776;SDS011;6452;41.572;23.732;2024-01-15T11:43:40;27.02;;;18.85;;
12776;SDS011;6452;41.572;23.732;2024-01-15T11:46:08;25.75;;;17.30;;
12776;SDS011;6452;41.572;23.732;2024-01-15T11:48:43;20.58;;;15.52;;
12776;SDS011;6452;41.572;23.732;2024-01-15T11:51:13;21.33;;;15.25;;
12776;SDS011;6452;41.572;23.732;2024-01-15T11:53:47;19.38;;;14.32;;
12776;SDS011;6452;41.572;23.732;2024-01-15T11:56:17;25.20;;;16.02;;
12776;SDS011;6452;41.572;23.732;2024-01-15T11:58:44;26.17;;;16.92;;
12776;SDS011;6452;41.572;23.732;2024-01-15T12:01:11;23.95;;;16.50;;
12776;SDS011;6452;41.572;23.732;2024-01-15T12:03:37;24.98;;;16.63;;
12776;SDS011;6452;41.572;23.732;2024-01-15T12:06:05;24.77;;;16.02;;
12776;SDS011;6452;41.572;23.732;2024-01-15T12:08:32;23.90;;;16.98;;
12776;SDS011;6452;41.572;23.732;2024-01-15T12:10:58;28.02;;;17.05;;
12776;SDS011;6452;41.572;23.732;2024-01-15T12:13:24;23.45;;;17.23;;
12776;SDS011;6452;41.572;23.732;2024-01-15T12:15:50;28.83;;;18.48;;
12776;SDS011;6452;41.572;23.732;2024-01-15T12:18:20;27.17;;;19.48;;
12776;SDS011;6452;41.572;23.732;2024-01-15T12:20:46;27.02;;;19.02;;
12776;SDS011;6452;41.572;23.732;2024-01-15T12:23:12;27.60;;;18.08;;
12776;SDS011;6452;41.572;23.732;2024-01-15T12:25:38;24.27;;;17.30;;
12776;SDS011;6452;41.572;23.732;2024-01-15T12:28:05;22.85;;;17.15;;
12776;SDS011;6452;41.572;23.732;2024-01-15T12:30:33;23.15;;;17.15;;
12776;SDS011;6452;41.572;23.732;2024-01-15T12:33:03;39.53;;;24.98;;
12776;SDS011;6452;41.572;23.732;2024-01-15T12:35:33;27.65;;;18.35;;
12776;SDS011;6452;41.572;23.732;2024-01-15T12:38:01;20.83;;;15.77;;
12776;SDS011;6452;41.572;23.732;2024-01-15T12:40:31;23.70;;;14.98;;
12776;SDS011;6452;41.572;23.732;2024-01-15T12:42:58;21.88;;;14.30;;
12776;SDS011;6452;41.572;23.732;2024-01-15T12:45:24;35.28;;;19.85;;
12776;SDS011;6452;41.572;23.732;2024-01-15T12:47:51;24.55;;;16.58;;
12776;SDS011;6452;41.572;23.732;2024-01-15T12:50:17;24.30;;;15.48;;
12776;SDS011;6452;41.572;23.732;2024-01-15T12:52:42;60.03;;;39.05;;
12776;SDS011;6452;41.572;23.732;2024-01-15T12:55:09;34.03;;;21.90;;
12776;SDS011;6452;41.572;23.732;2024-01-15T12:57:35;37.25;;;21.23;;
12776;SDS011;6452;41.572;23.732;2024-01-15T13:00:03;29.02;;;17.35;;
12776;SDS011;6452;41.572;23.732;2024-01-15T13:02:42;25.75;;;16.48;;
12776;SDS011;6452;41.572;23.732;2024-01-15T13:05:08;30.65;;;18.23;;
12776;SDS011;6452;41.572;23.732;2024-01-15T13:07:34;26.40;;;13.93;;
12776;SDS011;6452;41.572;23.732;2024-01-15T13:10:00;32.55;;;19.20;;
12776;SDS011;6452;41.572;23.732;2024-01-15T13:12:26;23.98;;;15.45;;
12776;SDS011;6452;41.572;23.732;2024-01-15T13:14:52;30.98;;;16.63;;
12776;SDS011;6452;41.572;23.732;2024-01-15T13:17:18;28.55;;;16.70;;
12776;SDS011;6452;41.572;23.732;2024-01-15T13:19:46;23.63;;;15.20;;
12776;SDS011;6452;41.572;23.732;2024-01-15T13:22:12;21.85;;;14.98;;
12776;SDS011;6452;41.572;23.732;2024-01-15T13:24:39;19.35;;;15.05;;
12776;SDS011;6452;41.572;23.732;2024-01-15T13:27:05;21.92;;;15.13;;
12776;SDS011;6452;41.572;23.732;2024-01-15T13:29:32;34.00;;;20.05;;
12776;SDS011;6452;41.572;23.732;2024-01-15T13:31:59;30.52;;;15.90;;
12776;SDS011;6452;41.572;23.732;2024-01-15T13:34:25;25.13;;;15.25;;
12776;SDS011;6452;41.572;23.732;2024-01-15T13:36:51;20.45;;;13.80;;
12776;SDS011;6452;41.572;23.732;2024-01-15T13:39:18;20.23;;;13.00;;
12776;SDS011;6452;41.572;23.732;2024-01-15T13:41:48;17.90;;;13.55;;
12776;SDS011;6452;41.572;23.732;2024-01-15T13:44:14;20.60;;;14.63;;
12776;SDS011;6452;41.572;23.732;2024-01-15T13:46:40;25.92;;;16.60;;
12776;SDS011;6452;41.572;23.732;2024-01-15T13:49:07;26.30;;;16.55;;
12776;SDS011;6452;41.572;23.732;2024-01-15T13:51:35;51.20;;;23.85;;
12776;SDS011;6452;41.572;23.732;2024-01-15T13:54:02;31.98;;;19.95;;
12776;SDS011;6452;41.572;23.732;2024-01-15T13:56:29;24.02;;;15.05;;
12776;SDS011;6452;41.572;23.732;2024-01-15T13:58:58;24.98;;;16.42;;
12776;SDS011;6452;41.572;23.732;2024-01-15T14:01:25;23.00;;;14.45;;
12776;SDS011;6452;41.572;23.732;2024-01-15T14:03:53;23.35;;;13.15;;
12776;SDS011;6452;41.572;23.732;2024-01-15T14:06:19;21.85;;;13.80;;
12776;SDS011;6452;41.572;23.732;2024-01-15T14:08:45;25.08;;;15.88;;
12776;SDS011;6452;41.572;23.732;2024-01-15T14:11:12;23.85;;;14.15;;
12776;SDS011;6452;41.572;23.732;2024-01-15T14:13:38;22.20;;;14.65;;
12776;SDS011;6452;41.572;23.732;2024-01-15T14:16:04;23.10;;;15.35;;
12776;SDS011;6452;41.572;23.732;2024-01-15T14:18:30;37.25;;;23.08;;
12776;SDS011;6452;41.572;23.732;2024-01-15T14:20:57;393.05;;;209.55;;
12776;SDS011;6452;41.572;23.732;2024-01-15T14:23:23;247.63;;;126.43;;
12776;SDS011;6452;41.572;23.732;2024-01-15T14:25:49;80.00;;;42.38;;